Latest Coastal Weather Observations for East Sale

IDV60701

Issued at 3:32 pm EST Saturday 29 April 2017 (issued every 10 minutes, with the page automatically refreshed every 10 minutes)

About coastal observations | Map of coastal stations | Coastal observations for VIC | Marine services | Other Formats
Station Details ID: 085072 Name: EAST SALE AIRPORT Lat: -38.12 Lon: 147.13 Height: 4.6 m
Data from the previous 72 hours. | See also: Recent months at East Sale
Date/Time
EST
Temp
°C
Wind Pressure Rain since
9am
mm
Weather Cloud Vis
km
Sea
Height
m
Swell
Dir  Spd
kts
Gust
kts
hPa Trend Height
m
Period
s
Dir
29/03:30pm 17.4 W 11 15 1020.4 - 0.0 - Cloudy 10 - - - -
29/03:00pm 18.1 W 13 19 1020.3 R 0.0 - Mostly cloudy 10 - - - -
29/02:30pm 17.7 W 14 20 1020.1 - 0.0 - - 10 - - - -
29/02:00pm 18.2 W 13 19 1019.8 - 0.0 - - 10 - - - -
29/01:33pm 16.3 WSW 11 16 1020.0 - 0.0 - - 10 - - - -
29/01:30pm 16.2 WSW 11 16 1020.1 - 0.0 - - 10 - - - -
29/01:19pm 16.2 WSW 16 23 1020.1 - 0.0 - - 6 - - - -
29/01:00pm 17.4 WSW 13 17 1020.1 - 0.0 - Partly cloudy 10 - - - -
29/12:45pm 16.3 W 15 25 1020.3 - 0.0 - - 10 - - - -
29/12:30pm 18.3 W 16 25 1020.2 - 0.0 - - 10 - - - -
29/12:28pm 18.3 W 15 25 1020.2 - 0.0 - - 10 - - - -
29/12:00pm 18.7 W 14 19 1020.4 R 0.0 - Cloudy 10 - - - -
29/11:30am 17.4 W 13 21 1020.6 - 0.0 - Partly cloudy 10 - - - -
29/11:00am 17.2 W 13 22 1020.8 - 0.0 - - 10 - - - -
29/10:30am 17.2 W 12 19 1021.0 - 0.0 - Partly cloudy 10 - - - -
29/10:00am 15.3 WSW 8 11 1021.2 - 0.0 - - 9 - - - -
29/09:30am 15.4 SW 9 13 1020.8 - 0.0 - - 10 - - - -
29/09:00am 16.0 WSW 10 14 1020.6 R 0.0 - Mostly cloudy 10 - - - -
29/08:30am 15.9 WNW 11 17 1020.5 - 0.0 - - 10 - - - -
29/08:00am 15.5 WNW 10 15 1020.3 - 0.0 - Partly cloudy 10 - - - -
29/07:30am 15.3 W 9 13 1020.0 - 0.0 - Cloudy 10 - - - -
29/07:00am 15.3 W 8 12 1019.8 - 0.0 - - 10 - - - -
29/06:30am 15.2 W 9 13 1019.6 - 0.0 - - 10 - - - -
29/06:00am 15.1 WNW 7 12 1019.4 F 0.0 - - 10 - - - -
29/05:30am 14.8 WNW 7 9 1019.3 - 0.0 - - 10 - - - -
29/05:00am 14.7 W 8 11 1019.3 - 0.0 - - 10 - - - -
29/04:30am 14.9 WNW 9 13 1018.9 - 0.0 - - 10 - - - -
29/04:00am 15.3 W 12 16 1019.0 - 0.0 - - 10 - - - -
29/03:30am 15.7 W 16 24 1019.0 - 0.0 - - 10 - - - -
29/03:29am 15.7 W 15 24 1019.0 - 0.0 - - 10 - - - -
29/03:00am 15.6 W 9 13 1019.2 F 0.0 - - 10 - - - -
29/02:30am 15.5 WSW 10 13 1019.6 - 0.0 - Cloudy 10 - - - -
29/02:00am 15.6 W 13 19 1019.8 - 0.0 - - 10 - - - -
29/01:30am 15.6 W 15 22 1019.8 - 0.0 - - 10 - - - -
29/01:00am 14.7 W 13 17 1019.9 - 0.0 - - 10 - - - -
29/12:30am 14.8 W 10 13 1019.9 - 0.0 - - 10 - - - -
29/12:00am 14.2 WNW 8 13 1020.1 F 0.0 - - 10 - - - -
 
Date/Time
EST
Temp
°C
Wind Pressure Rain since
9am
mm
Weather Cloud Vis
km
Sea
Height
m
Swell
Dir  Spd
kts
Gust
kts
hPa Trend Height
m
Period
s
Dir
28/11:30pm 14.9 WNW 9 13 1020.3 - 0.0 - Partly cloudy 10 - - - -
28/11:00pm 15.3 WNW 11 16 1020.4 - 0.0 - - 10 - - - -
28/10:30pm 14.2 WNW 8 12 1020.6 - 0.0 - - 10 - - - -
28/10:00pm 13.4 W 7 10 1020.8 - 0.0 - Partly cloudy 10 - - - -
28/09:30pm 14.1 W 9 12 1020.9 - 0.0 - - 10 - - - -
28/09:00pm 14.1 WNW 6 9 1020.6 F 0.0 - - 10 - - - -
28/08:30pm 14.8 NW 9 11 1020.7 - 0.0 - - 10 - - - -
28/08:00pm 14.9 WNW 7 11 1020.8 - 0.0 - - 10 - - - -
28/07:30pm 14.9 WNW 8 12 1020.7 - 0.0 - - 10 - - - -
28/07:00pm 14.8 WNW 6 10 1020.9 - 0.0 - - 10 - - - -
28/06:30pm 15.7 WNW 9 12 1020.8 - 0.0 - Partly cloudy 10 - - - -
28/06:00pm 16.2 WNW 10 13 1020.6 F 0.0 - Mostly cloudy 10 - - - -
28/05:30pm 16.1 W 9 15 1020.5 - 0.0 - Partly cloudy 10 - - - -
28/05:00pm 16.5 W 11 19 1020.3 - 0.0 - - 10 - - - -
28/04:30pm 17.1 W 16 22 1020.2 - 0.0 - - 10 - - - -
28/04:00pm 17.8 W 14 21 1020.2 - 0.0 - Partly cloudy 10 - - - -
28/03:30pm 17.4 W 14 19 1020.4 - 0.0 - Mostly cloudy 10 - - - -
28/03:00pm 17.4 W 13 21 1020.4 R 0.0 - Mostly cloudy 10 - - - -
28/02:30pm 18.1 W 13 19 1020.2 - 0.0 - Mostly cloudy 10 - - - -
28/02:00pm 18.3 W 14 21 1020.3 - 0.0 - Mostly cloudy 10 - - - -
28/01:30pm 17.8 W 14 22 1020.5 - 0.0 - Partly cloudy 10 - - - -
28/01:00pm 18.1 WNW 15 21 1020.6 - 0.0 - Partly cloudy 10 - - - -
28/12:30pm 18.7 W 16 21 1021.0 - 0.0 - Mostly clear 10 - - - -
28/12:00pm 18.3 W 13 19 1021.5 F 0.0 - Partly cloudy 10 - - - -
28/11:30am 17.8 W 17 24 1021.9 - 0.0 - Mostly clear 10 - - - -
28/11:00am 17.1 W 14 19 1022.2 - 0.0 - Mostly clear 10 - - - -
28/10:30am 15.8 WNW 8 13 1022.5 - 0.0 - - 10 - - - -
28/10:00am 14.7 W 8 11 1022.9 - 0.0 - Mostly clear 10 - - - -
28/09:30am 13.9 NW 9 11 1022.9 - 0.0 - Partly cloudy 10 - - - -
28/09:00am 12.4 WNW 6 8 1023.0 R 0.4 - Mostly cloudy 10 - - - -
28/08:30am 10.9 NW 6 8 1022.7 - 0.4 - Partly cloudy 10 - - - -
28/08:00am 9.7 NW 6 8 1022.6 - 0.4 - Partly cloudy 10 - - - -
28/07:30am 10.1 NW 7 9 1022.4 - 0.4 - Mostly cloudy 10 - - - -
28/07:00am 9.7 NW 6 7 1022.3 - 0.4 - Partly cloudy 10 - - - -
28/06:30am 9.7 W 4 6 1022.2 - 0.4 - - 10 - - - -
28/06:00am 9.8 W 6 8 1022.0 S 0.4 - - 10 - - - -
28/05:30am 10.0 W 8 11 1021.9 - 0.4 - - 10 - - - -
28/05:00am 9.7 W 8 11 1021.4 - 0.4 - - 10 - - - -
28/04:30am 9.6 WNW 8 10 1021.2 - 0.4 - - 10 - - - -
28/04:00am 9.1 WNW 8 11 1021.1 - 0.4 - - 10 - - - -
28/03:30am 9.2 WNW 8 12 1021.3 - 0.4 - Partly cloudy 10 - - - -
28/03:00am 9.3 W 8 11 1021.6 S 0.4 - - 10 - - - -
28/02:30am 9.1 WNW 7 9 1021.8 - 0.4 - - 10 - - - -
28/02:00am 9.3 W 7 8 1022.1 - 0.4 - - 10 - - - -
28/01:30am 9.7 WNW 7 9 1022.1 - 0.4 - Partly cloudy 10 - - - -
28/01:00am 9.8 W 8 10 1022.2 - 0.4 - - 10 - - - -
28/12:30am 9.9 W 9 12 1022.4 - 0.2 - Partly cloudy 10 - - - -
28/12:00am 10.1 W 7 9 1022.4 S 0.2 - - 10 - - - -
 
Date/Time
EST
Temp
°C
Wind Pressure Rain since
9am
mm
Weather Cloud Vis
km
Sea
Height
m
Swell
Dir  Spd
kts
Gust
kts
hPa Trend Height
m
Period
s
Dir
27/11:30pm 9.9 W 8 9 1022.5 - 0.2 - - 10 - - - -
27/11:00pm 9.7 WNW 7 9 1022.4 - 0.2 - - 10 - - - -
27/10:30pm 10.7 WNW 6 8 1022.6 - 0.2 - - 10 - - - -
27/10:00pm 10.8 NW 7 8 1022.7 - 0.2 - - 10 - - - -
27/09:30pm 10.6 WNW 6 7 1022.7 - 0.2 - - 10 - - - -
27/09:00pm 10.4 WNW 8 11 1022.7 F 0.2 - - 10 - - - -
27/08:30pm 10.5 WNW 6 9 1022.7 - 0.2 - Partly cloudy 10 - - - -
27/08:00pm 10.6 NW 5 7 1022.8 - 0.2 - Partly cloudy 10 - - - -
27/07:30pm 10.4 NW 5 7 1022.6 - 0.2 - - 10 - - - -
27/07:00pm 10.6 NW 6 8 1022.4 - 0.2 - - 10 - - - -
27/06:30pm 11.1 NW 6 8 1022.1 - 0.2 - Partly cloudy 10 - - - -
27/06:00pm 11.1 NW 6 9 1021.7 F 0.2 - Cloudy 10 - - - -
27/05:30pm 11.0 NW 6 8 1021.6 - 0.2 - Partly cloudy 10 - - - -
27/05:00pm 11.5 NW 6 8 1021.5 - 0.2 - Partly cloudy 10 - - - -
27/04:30pm 11.6 W 5 8 1021.6 - 0.2 - Partly cloudy 10 - - - -
27/04:00pm 12.1 W 6 9 1021.9 - 0.2 - Mostly clear 10 - - - -
27/03:30pm 11.3 WSW 11 15 1021.9 - 0.2 Showers Mostly cloudy 10 - - - -
27/03:00pm 13.8 WNW 5 7 1021.4 R 0.2 Recent precip. Partly cloudy 10 - - - -
27/02:30pm 12.4 WSW 11 18 1021.5 - 0.0 Showers Mostly cloudy 10 - - - -
27/02:00pm 13.9 WSW 10 14 1021.1 - 0.0 - Partly cloudy 10 - - - -
27/01:30pm 14.4 WSW 8 11 1020.9 - 0.0 - Partly cloudy 10 - - - -
27/01:00pm 14.4 SW 14 19 1020.9 - 0.0 - Partly cloudy 10 - - - -
27/12:30pm 14.7 SW 11 17 1021.2 - 0.0 - Partly cloudy 10 - - - -
27/12:00pm 15.0 SSW 13 21 1021.3 R 0.0 - Partly cloudy 10 - - - -
27/11:30am 15.0 WSW 9 15 1021.4 - 0.0 - Partly cloudy 10 - - - -
27/11:00am 13.8 WNW 9 13 1021.5 - 0.0 - Mostly clear 10 - - - -
27/10:30am 13.1 WNW 7 10 1021.6 - 0.0 - Mostly clear 10 - - - -
27/10:00am 11.1 W 8 12 1021.6 - 0.0 - Mostly clear 10 - - - -
27/09:30am 10.3 W 9 13 1021.7 - 0.0 - Mostly clear 10 - - - -
27/09:00am 9.1 W 7 10 1021.6 R 1.0 - Cloudy 10 - - - -
27/08:30am 8.6 W 9 12 1021.4 - 1.0 - Partly cloudy 10 - - - -
27/08:00am 8.2 W 8 11 1021.1 - 1.0 - Partly cloudy 10 - - - -
27/07:30am 8.1 W 10 13 1020.6 - 1.0 - Partly cloudy 10 - - - -
27/07:00am 7.7 WSW 9 13 1020.3 - 1.0 - Partly cloudy 10 - - - -
27/06:30am 7.9 W 9 13 1019.8 - 1.0 - - 10 - - - -
27/06:00am 8.0 W 7 10 1019.4 R 0.8 - - 10 - - - -
27/05:30am 7.7 W 7 10 1019.1 - 0.8 - - 10 - - - -
27/05:00am 7.8 WNW 9 12 1018.7 - 0.8 - - 10 - - - -
27/04:30am 8.3 W 10 15 1018.4 - 0.8 - - 10 - - - -
27/04:00am 8.2 W 10 13 1018.1 - 0.8 - Partly cloudy 10 - - - -
27/03:30am 7.0 W 9 11 1018.1 - 0.6 - Partly cloudy 10 - - - -
27/03:00am 7.3 W 8 11 1018.2 R 0.6 Recent precip. Cloudy 10 - - - -
27/02:30am 7.9 W 9 15 1018.2 - 0.6 - - 10 - - - -
27/02:00am 7.5 WNW 9 11 1017.7 - 0.2 - Partly cloudy 10 - - - -
27/01:30am 7.5 W 11 16 1017.7 - 0.2 - - 10 - - - -
27/01:00am 7.3 SW 11 18 1018.0 - 0.0 - Partly cloudy 10 - - - -
27/12:30am 7.3 W 8 13 1017.4 - 0.0 - - 10 - - - -
27/12:00am 7.0 W 9 13 1017.2 R 0.0 - - 10 - - - -
 
Date/Time
EST
Temp
°C
Wind Pressure Rain since
9am
mm
Weather Cloud Vis
km
Sea
Height
m
Swell
Dir  Spd
kts
Gust
kts
hPa Trend Height
m
Period
s
Dir
26/11:30pm 6.9 WSW 7 10 1017.1 - 0.0 - - 10 - - - -
26/11:00pm 7.4 W 11 14 1017.2 - 0.0 - - 10 - - - -
26/10:30pm 7.9 WNW 10 15 1017.1 - 0.0 - - 10 - - - -
26/10:00pm 7.6 WNW 10 14 1017.1 - 0.0 - - 10 - - - -
26/09:30pm 7.6 WNW 9 12 1017.0 - 0.0 - - 10 - - - -
26/09:00pm 7.8 WNW 11 17 1016.6 R 0.0 - - - - - - -
26/08:30pm 8.3 W 13 18 1016.5 - 0.0 - - 10 - - - -
26/08:00pm 8.6 W 13 17 1016.1 - 0.0 - Cloudy 10 - - - -
26/07:30pm 9.1 W 11 17 1016.1 - 0.0 - Partly cloudy 10 - - - -
26/07:00pm 8.3 WNW 9 11 1015.6 - 0.0 - Partly cloudy 10 - - - -
26/06:30pm 8.5 WNW 7 10 1015.1 - 0.0 - - 10 - - - -
26/06:00pm 9.4 WSW 10 14 1014.5 R 0.0 - - 10 - - - -
26/05:30pm 10.2 WSW 13 17 1014.1 - 0.0 - - 10 - - - -
26/05:00pm 10.4 W 7 10 1013.5 - 0.0 - - 10 - - - -
26/04:30pm 11.5 W 9 12 1013.1 - 0.0 - Partly cloudy 10 - - - -
26/04:00pm 10.8 WSW 21 30 1012.7 - 0.0 - Partly cloudy 10 - - - -
26/03:46pm 11.7 SW 18 32 1012.4 - 0.0 - Partly cloudy 10 - - - -

Other Formats:

Comma delimited format used in spreadsheet applications
http://www.bom.gov.au/fwo/IDV60701/IDV60701.94907.axf

JavaScript Object Notation format (JSON) in row-major order
http://www.bom.gov.au/fwo/IDV60701/IDV60701.94907.json